createdAt,value
2022-08-10T00:02:27.522Z,12.70
2022-08-10T00:04:55.564Z,12.60
2022-08-10T00:07:23.624Z,12.60
2022-08-10T00:09:51.606Z,12.60
2022-08-10T00:12:20.371Z,12.50
2022-08-10T00:14:48.526Z,12.50
2022-08-10T00:17:16.439Z,12.40
2022-08-10T00:20:02.351Z,12.40
2022-08-10T00:22:32.611Z,12.40
2022-08-10T00:25:00.682Z,12.40
2022-08-10T00:27:52.570Z,12.30
2022-08-10T00:30:16.856Z,12.30
2022-08-10T00:32:44.715Z,12.30
2022-08-10T00:35:13.929Z,12.20
2022-08-10T00:37:41.803Z,12.20
2022-08-10T00:40:36.988Z,12.20
2022-08-10T00:43:05.882Z,12.20
2022-08-10T00:45:33.792Z,12.10
2022-08-10T00:48:01.646Z,12.10
2022-08-10T00:50:31.051Z,12.00
2022-08-10T00:52:58.917Z,12.00
2022-08-10T00:55:27.052Z,12.00
2022-08-10T00:57:55.883Z,11.90
2022-08-10T01:00:23.896Z,11.90
2022-08-10T01:02:52.195Z,11.80
2022-08-10T01:05:21.131Z,11.80
2022-08-10T01:08:09.063Z,11.80
2022-08-10T01:10:41.893Z,11.70
2022-08-10T01:13:11.373Z,11.70
2022-08-10T01:15:44.234Z,11.70
2022-08-10T01:18:18.510Z,11.70
2022-08-10T01:20:52.429Z,11.60
2022-08-10T01:23:51.575Z,11.60
2022-08-10T01:26:31.229Z,11.60
2022-08-10T01:29:10.710Z,11.60
2022-08-10T01:31:42.277Z,11.50
2022-08-10T01:34:12.736Z,11.50
2022-08-10T01:36:44.682Z,11.50
2022-08-10T01:39:14.486Z,11.40
2022-08-10T01:41:46.610Z,11.40
2022-08-10T01:44:15.921Z,11.40
2022-08-10T01:46:48.250Z,11.30
2022-08-10T01:49:21.202Z,11.30
2022-08-10T01:51:51.835Z,11.30
2022-08-10T01:54:21.038Z,11.30
2022-08-10T01:56:50.006Z,11.20
2022-08-10T01:59:20.613Z,11.20
2022-08-10T02:01:51.267Z,11.20
2022-08-10T02:04:20.576Z,11.20
2022-08-10T02:06:50.088Z,11.10
2022-08-10T02:09:19.590Z,11.10
2022-08-10T02:12:06.103Z,11.10
2022-08-10T02:14:38.142Z,11.10
2022-08-10T02:17:08.999Z,11.10
2022-08-10T02:19:57.868Z,11.10
2022-08-10T02:22:38.206Z,11.00
2022-08-10T02:25:07.972Z,11.00
2022-08-10T02:27:35.996Z,10.90
2022-08-10T02:30:05.000Z,11.00
2022-08-10T02:32:37.877Z,10.90
2022-08-10T02:35:08.521Z,10.90
2022-08-10T02:37:44.529Z,10.90
2022-08-10T02:42:17.991Z,10.90
2022-08-10T02:45:24.323Z,10.80
2022-08-10T02:45:55.927Z,10.80
2022-08-10T02:48:27.797Z,10.70
2022-08-10T02:50:57.683Z,10.80
2022-08-10T02:53:54.899Z,10.70
2022-08-10T02:56:21.127Z,10.80
2022-08-10T02:58:51.818Z,10.70
2022-08-10T03:01:21.315Z,10.70
2022-08-10T03:03:52.973Z,10.70
2022-08-10T03:06:23.140Z,10.60
2022-08-10T03:08:51.924Z,10.60
2022-08-10T03:12:37.426Z,10.60
2022-08-10T03:14:11.849Z,10.60
2022-08-10T03:16:40.432Z,10.60
2022-08-10T03:20:33.594Z,10.60
2022-08-10T03:21:58.603Z,10.50
2022-08-10T03:24:33.321Z,10.50
2022-08-10T03:27:01.868Z,10.50
2022-08-10T03:29:30.094Z,10.50
2022-08-10T03:32:18.596Z,10.40
2022-08-10T03:34:47.878Z,10.40
2022-08-10T03:37:15.855Z,10.40
2022-08-10T03:39:43.892Z,10.40
2022-08-10T03:42:13.603Z,10.40
2022-08-10T03:44:43.061Z,10.40
2022-08-10T03:47:15.961Z,10.30
2022-08-10T03:49:44.983Z,10.30
2022-08-10T03:52:14.252Z,10.30
2022-08-10T03:54:42.312Z,10.30
2022-08-10T03:57:10.260Z,10.20
2022-08-10T03:59:38.581Z,10.20
2022-08-10T04:02:45.313Z,10.20
2022-08-10T04:04:54.989Z,10.20
2022-08-10T04:07:24.304Z,10.20
2022-08-10T04:09:56.060Z,10.20
2022-08-10T04:12:24.457Z,10.20
2022-08-10T04:14:53.756Z,10.20
2022-08-10T04:18:03.657Z,10.30
2022-08-10T04:20:14.672Z,10.30
2022-08-10T04:22:44.415Z,10.30
2022-08-10T04:25:13.458Z,10.30
2022-08-10T04:27:41.378Z,10.30
2022-08-10T04:30:09.753Z,10.30
2022-08-10T04:32:38.463Z,10.30
2022-08-10T04:35:10.660Z,10.40
2022-08-10T04:37:46.776Z,10.40
2022-08-10T04:40:25.463Z,10.40
2022-08-10T04:43:02.168Z,10.40
2022-08-10T04:45:49.889Z,10.50
2022-08-10T04:48:42.575Z,10.50
2022-08-10T04:51:17.679Z,10.60
2022-08-10T04:54:04.559Z,10.60
2022-08-10T04:56:40.226Z,10.60
2022-08-10T04:59:09.363Z,10.50
2022-08-10T05:02:28.531Z,10.60
2022-08-10T05:04:36.984Z,10.60
2022-08-10T05:07:07.691Z,10.60
2022-08-10T05:10:03.081Z,10.60
2022-08-10T05:12:24.797Z,10.70
2022-08-10T05:14:53.107Z,10.70
2022-08-10T05:17:22.889Z,10.80
2022-08-10T05:20:05.034Z,10.80
2022-08-10T05:22:34.977Z,10.90
2022-08-10T05:25:02.990Z,11.00
2022-08-10T05:27:32.192Z,11.10
2022-08-10T05:30:01.448Z,11.30
2022-08-10T05:32:30.597Z,11.40
2022-08-10T05:34:58.645Z,11.60
2022-08-10T05:38:12.263Z,11.80
2022-08-10T05:40:14.773Z,11.90
2022-08-10T05:42:44.024Z,12.20
2022-08-10T05:45:16.931Z,12.30
2022-08-10T05:48:53.979Z,12.50
2022-08-10T05:50:32.602Z,12.70
2022-08-10T05:53:58.735Z,13.00
2022-08-10T05:55:48.293Z,13.10
2022-08-10T05:58:17.560Z,13.30
2022-08-10T06:00:49.694Z,13.50
2022-08-10T06:03:23.914Z,13.70
2022-08-10T06:05:54.219Z,13.90
2022-08-10T06:08:24.132Z,14.20
2022-08-10T06:12:23.857Z,14.40
2022-08-10T06:14:13.657Z,14.50
2022-08-10T06:16:44.384Z,14.80
2022-08-10T06:19:15.257Z,15.00
2022-08-10T06:22:00.427Z,15.20
2022-08-10T06:24:30.985Z,15.40
2022-08-10T06:26:59.116Z,15.60
2022-08-10T06:29:30.223Z,15.70
2022-08-10T06:31:58.223Z,15.90
2022-08-10T06:34:28.655Z,16.00
2022-08-10T06:36:58.519Z,16.20
2022-08-10T06:39:36.086Z,16.30
2022-08-10T06:42:15.966Z,16.40
2022-08-10T06:44:49.581Z,16.60
2022-08-10T06:47:23.246Z,16.70
2022-08-10T06:49:53.054Z,16.90
2022-08-10T06:52:21.167Z,17.00
2022-08-10T06:54:50.148Z,17.20
2022-08-10T06:57:18.924Z,17.30
2022-08-10T06:59:49.031Z,17.30
2022-08-10T07:02:20.585Z,17.30
2022-08-10T07:04:53.173Z,17.40
2022-08-10T07:07:22.968Z,17.50
2022-08-10T07:09:51.939Z,17.70
2022-08-10T07:12:20.866Z,17.90
2022-08-10T07:14:51.774Z,18.00
2022-08-10T07:17:20.738Z,18.20
2022-08-10T07:19:52.217Z,18.30
2022-08-10T07:23:01.620Z,18.40
2022-08-10T07:25:11.659Z,18.70
2022-08-10T07:28:00.654Z,18.90
2022-08-10T07:30:30.472Z,19.10
2022-08-10T07:32:59.673Z,19.40
2022-08-10T07:35:31.904Z,19.60
2022-08-10T07:38:05.113Z,19.80
2022-08-10T07:40:34.653Z,19.90
2022-08-10T07:43:03.158Z,20.20
2022-08-10T07:45:34.356Z,20.30
2022-08-10T07:48:07.448Z,20.50
2022-08-10T07:50:37.885Z,20.70
2022-08-10T07:53:07.255Z,21.00
2022-08-10T07:56:04.867Z,21.10
2022-08-10T07:58:26.145Z,21.40
2022-08-10T08:00:55.828Z,21.70
2022-08-10T08:03:26.697Z,21.90
2022-08-10T08:06:02.661Z,22.10
2022-08-10T08:08:31.918Z,22.40
2022-08-10T08:11:00.562Z,22.60
2022-08-10T08:13:29.183Z,22.70
2022-08-10T08:16:19.657Z,22.90
2022-08-10T08:18:58.105Z,23.00
2022-08-10T08:24:30.228Z,23.20
2022-08-10T08:24:32.334Z,23.40
2022-08-10T08:27:01.804Z,23.70
2022-08-10T08:29:30.465Z,24.00
2022-08-10T08:32:01.792Z,24.20
2022-08-10T08:34:31.432Z,24.50
2022-08-10T08:37:00.661Z,24.70
2022-08-10T08:39:28.701Z,24.90
2022-08-10T08:42:01.546Z,25.20
2022-08-10T08:44:35.777Z,25.40
2022-08-10T08:48:01.992Z,25.70
2022-08-10T08:50:10.196Z,26.00
2022-08-10T08:52:44.988Z,26.30
2022-08-10T08:56:03.480Z,26.60
2022-08-10T08:58:17.971Z,26.80
2022-08-10T09:00:50.533Z,26.40
2022-08-10T09:03:28.146Z,26.00
2022-08-10T09:06:02.490Z,26.30
2022-08-10T09:08:38.569Z,26.70
2022-08-10T09:11:10.140Z,27.20
2022-08-10T09:13:40.525Z,27.50
2022-08-10T09:16:11.688Z,27.70
2022-08-10T09:18:46.457Z,27.90
2022-08-10T09:21:17.000Z,28.10
2022-08-10T09:24:04.421Z,28.10
2022-08-10T09:26:36.510Z,28.10
2022-08-10T09:29:12.506Z,28.00
2022-08-10T09:31:55.515Z,27.70
2022-08-10T09:36:22.100Z,27.30
2022-08-10T09:37:39.456Z,27.40
2022-08-10T09:40:59.993Z,27.90
2022-08-10T09:43:25.297Z,28.30
2022-08-10T09:45:58.436Z,28.70
2022-08-10T09:48:27.969Z,28.80
2022-08-10T09:51:44.205Z,28.70
2022-08-10T09:53:53.960Z,28.90
2022-08-10T09:56:28.824Z,29.30
2022-08-10T09:59:47.341Z,29.20
2022-08-10T10:02:03.366Z,29.40
2022-08-10T10:04:40.049Z,29.80
2022-08-10T10:07:10.119Z,30.00
2022-08-10T10:09:44.037Z,30.10
2022-08-10T10:12:16.639Z,30.30
2022-08-10T10:15:08.255Z,30.40
2022-08-10T10:17:41.737Z,30.40
2022-08-10T10:20:12.139Z,30.60
2022-08-10T10:22:47.716Z,31.00
2022-08-10T10:25:21.251Z,31.20
2022-08-10T10:27:52.283Z,31.40
2022-08-10T10:30:20.803Z,31.60
2022-08-10T10:33:04.178Z,31.60
2022-08-10T10:35:36.245Z,31.90
2022-08-10T10:38:07.672Z,32.00
2022-08-10T10:40:38.715Z,32.10
2022-08-10T10:43:09.570Z,31.60
2022-08-10T10:45:50.124Z,31.50
2022-08-10T10:48:27.541Z,31.80
2022-08-10T10:51:02.737Z,31.70
2022-08-10T10:53:36.489Z,31.20
2022-08-10T10:56:15.269Z,31.40
2022-08-10T10:58:51.843Z,31.20
2022-08-10T11:01:24.454Z,31.20
2022-08-10T11:04:02.336Z,31.30
2022-08-10T11:06:40.464Z,31.70
2022-08-10T11:10:04.967Z,32.10
2022-08-10T11:12:10.840Z,32.50
2022-08-10T11:14:45.299Z,32.70
2022-08-10T11:17:18.354Z,33.10
2022-08-10T11:20:01.790Z,32.80
2022-08-10T11:22:36.629Z,32.70
2022-08-10T11:25:11.173Z,31.90
2022-08-10T11:27:42.991Z,31.10
2022-08-10T11:30:13.681Z,31.40
2022-08-10T11:32:52.901Z,31.40
2022-08-10T11:35:23.268Z,30.70
2022-08-10T11:38:32.667Z,30.30
2022-08-10T11:40:50.238Z,30.40
2022-08-10T11:43:21.851Z,29.70
2022-08-10T11:45:55.406Z,29.20
2022-08-10T11:48:54.129Z,29.80
2022-08-10T11:51:20.032Z,30.60
2022-08-10T11:53:50.195Z,31.40
2022-08-10T11:56:24.571Z,32.00
2022-08-10T11:59:16.948Z,31.70
2022-08-10T12:01:46.567Z,31.30
2022-08-10T12:04:15.865Z,31.30
2022-08-10T12:07:00.050Z,31.20
2022-08-10T12:10:10.084Z,30.70
2022-08-10T12:12:18.646Z,30.00
2022-08-10T12:14:52.499Z,29.50
2022-08-10T12:17:23.348Z,29.20
2022-08-10T12:20:02.422Z,29.40
2022-08-10T12:22:34.085Z,30.10
2022-08-10T12:25:03.815Z,31.00
2022-08-10T12:27:38.212Z,31.80
2022-08-10T12:30:07.138Z,31.80
2022-08-10T12:32:39.852Z,31.00
2022-08-10T12:35:13.305Z,30.20
2022-08-10T12:37:57.524Z,29.70
2022-08-10T12:40:37.001Z,29.20
2022-08-10T12:44:04.753Z,28.90
2022-08-10T12:46:06.447Z,28.60
2022-08-10T12:48:37.284Z,29.20
2022-08-10T12:51:08.765Z,30.10
2022-08-10T12:53:42.109Z,31.00
2022-08-10T12:56:10.059Z,32.00
2022-08-10T12:58:58.964Z,32.80
2022-08-10T13:02:06.681Z,32.70
2022-08-10T13:04:22.573Z,31.80
2022-08-10T13:06:52.647Z,31.10
2022-08-10T13:09:22.561Z,30.30
2022-08-10T13:12:35.232Z,29.70
2022-08-10T13:14:47.416Z,29.90
2022-08-10T13:17:21.211Z,30.70
2022-08-10T13:19:56.406Z,30.20
2022-08-10T13:22:26.513Z,29.50
2022-08-10T13:24:56.333Z,28.90
2022-08-10T13:27:59.792Z,29.30
2022-08-10T13:30:16.348Z,30.10
2022-08-10T13:32:48.728Z,30.80
2022-08-10T13:35:18.828Z,31.40
2022-08-10T13:37:48.255Z,31.80
2022-08-10T13:40:17.331Z,32.30
2022-08-10T13:42:45.277Z,32.80
2022-08-10T13:45:14.601Z,33.20
2022-08-10T13:47:48.566Z,33.70
2022-08-10T13:50:35.601Z,33.80
2022-08-10T13:53:11.503Z,34.00
2022-08-10T13:55:54.093Z,33.30
2022-08-10T13:58:24.658Z,33.70
2022-08-10T14:00:53.581Z,34.00
2022-08-10T14:03:23.882Z,33.20
2022-08-10T14:05:52.598Z,32.30
2022-08-10T14:08:21.369Z,31.50
2022-08-10T14:11:08.998Z,30.80
2022-08-10T14:13:41.641Z,30.20
2022-08-10T14:16:11.950Z,29.70
2022-08-10T14:18:42.221Z,29.10
2022-08-10T14:21:10.176Z,28.70
2022-08-10T14:23:40.672Z,28.40
2022-08-10T14:26:09.562Z,28.10
2022-08-10T14:28:39.638Z,27.80
2022-08-10T14:31:08.386Z,27.50
2022-08-10T14:33:36.914Z,27.30
2022-08-10T14:36:21.955Z,27.20
2022-08-10T14:38:53.430Z,27.00
2022-08-10T14:42:00.828Z,27.80
2022-08-10T14:44:14.594Z,28.60
2022-08-10T14:46:45.221Z,29.30
2022-08-10T14:49:26.676Z,29.60
2022-08-10T14:52:00.324Z,29.80
2022-08-10T14:54:29.856Z,30.00
2022-08-10T14:57:11.040Z,30.00
2022-08-10T15:00:24.133Z,30.10
2022-08-10T15:02:38.985Z,30.20
2022-08-10T15:05:17.982Z,30.10
2022-08-10T15:07:48.278Z,30.10
2022-08-10T15:10:28.201Z,30.10
2022-08-10T15:12:58.895Z,30.10
2022-08-10T15:15:28.795Z,30.10
2022-08-10T15:17:58.825Z,30.20
2022-08-10T15:20:28.691Z,30.20
2022-08-10T15:23:00.854Z,30.20
2022-08-10T15:25:30.049Z,30.00
2022-08-10T15:28:05.457Z,29.80
2022-08-10T15:30:39.452Z,29.40
2022-08-10T15:34:02.866Z,29.00
2022-08-10T15:36:34.458Z,28.70
2022-08-10T15:39:16.393Z,28.20
2022-08-10T15:41:58.540Z,28.10
2022-08-10T15:44:39.146Z,27.90
2022-08-10T15:47:10.414Z,27.60
2022-08-10T15:49:41.506Z,27.20
2022-08-10T15:52:59.910Z,26.90
2022-08-10T15:55:41.843Z,26.60
2022-08-10T15:58:02.536Z,26.30
2022-08-10T16:00:31.990Z,26.10
2022-08-10T16:03:01.413Z,26.20
2022-08-10T16:06:00.163Z,26.50
2022-08-10T16:08:22.040Z,26.70
2022-08-10T16:10:54.935Z,26.90
2022-08-10T16:13:50.838Z,26.90
2022-08-10T16:16:13.256Z,26.70
2022-08-10T16:18:43.107Z,26.60
2022-08-10T16:21:14.869Z,26.50
2022-08-10T16:23:45.005Z,26.50
2022-08-10T16:26:35.891Z,26.50
2022-08-10T16:29:05.875Z,26.30
2022-08-10T16:31:34.665Z,26.30
2022-08-10T16:34:04.324Z,26.30
2022-08-10T16:36:34.373Z,26.20
2022-08-10T16:39:02.262Z,26.20
2022-08-10T16:42:03.030Z,26.20
2022-08-10T16:44:20.871Z,26.10
2022-08-10T16:46:49.843Z,25.90
2022-08-10T16:49:19.002Z,25.80
2022-08-10T16:51:48.444Z,25.60
2022-08-10T16:54:18.119Z,25.60
2022-08-10T16:56:48.960Z,25.50
2022-08-10T16:59:20.778Z,25.30
2022-08-10T17:01:51.630Z,25.30
2022-08-10T17:04:23.547Z,25.20
2022-08-10T17:06:56.119Z,25.10
2022-08-10T17:09:26.260Z,24.90
2022-08-10T17:11:55.676Z,24.70
2022-08-10T17:14:24.825Z,24.60
2022-08-10T17:16:55.421Z,24.50
2022-08-10T17:21:15.490Z,24.20
2022-08-10T17:23:49.130Z,24.00
2022-08-10T17:26:23.945Z,23.90
2022-08-10T17:29:53.308Z,23.80
2022-08-10T17:32:01.577Z,23.60
2022-08-10T17:34:34.076Z,23.40
2022-08-10T17:37:06.448Z,23.30
2022-08-10T17:39:43.019Z,23.20
2022-08-10T17:42:13.913Z,23.00
2022-08-10T17:44:45.655Z,22.90
2022-08-10T17:47:14.477Z,22.70
2022-08-10T17:49:44.425Z,22.60
2022-08-10T17:52:21.809Z,22.40
2022-08-10T17:54:56.499Z,22.20
2022-08-10T17:57:27.104Z,22.10
2022-08-10T17:59:56.276Z,21.90
2022-08-10T18:02:26.836Z,21.80
2022-08-10T18:04:57.895Z,21.60
2022-08-10T18:07:33.723Z,21.50
2022-08-10T18:10:03.982Z,21.50
2022-08-10T18:12:40.406Z,21.30
2022-08-10T18:15:12.240Z,21.30
2022-08-10T18:17:45.715Z,21.10
2022-08-10T18:20:15.494Z,21.00
2022-08-10T18:22:53.106Z,21.00
2022-08-10T18:25:23.904Z,20.80
2022-08-10T18:28:02.060Z,20.70
2022-08-10T18:30:37.000Z,20.60
2022-08-10T18:33:11.712Z,20.40
2022-08-10T18:35:40.517Z,20.30
2022-08-10T18:38:12.936Z,20.20
2022-08-10T18:40:45.038Z,20.10
2022-08-10T18:44:07.732Z,20.00
2022-08-10T18:46:11.423Z,19.90
2022-08-10T18:48:44.652Z,19.70
2022-08-10T18:51:14.420Z,19.60
2022-08-10T18:53:48.864Z,19.50
2022-08-10T18:56:41.366Z,19.40
2022-08-10T19:00:08.446Z,19.30
2022-08-10T19:03:03.101Z,19.30
2022-08-10T19:05:52.862Z,19.20
2022-08-10T19:08:35.990Z,19.00
2022-08-10T19:11:12.556Z,19.00
2022-08-10T19:13:51.058Z,18.90
2022-08-10T19:16:26.591Z,18.80
2022-08-10T19:19:22.361Z,18.70
2022-08-10T19:22:02.146Z,18.70
2022-08-10T19:24:43.565Z,18.60
2022-08-10T19:27:22.393Z,18.60
2022-08-10T19:30:11.418Z,18.50
2022-08-10T19:33:08.205Z,18.50
2022-08-10T19:36:04.459Z,18.40
2022-08-10T19:38:45.514Z,18.30
2022-08-10T19:41:32.393Z,18.30
2022-08-10T19:44:20.049Z,18.20
2022-08-10T19:46:54.986Z,18.10
2022-08-10T19:49:40.042Z,18.10
2022-08-10T19:52:15.153Z,18.00
2022-08-10T19:55:05.655Z,17.90
2022-08-10T19:57:39.349Z,17.80
2022-08-10T20:00:19.502Z,17.80
2022-08-10T20:03:03.788Z,17.70
2022-08-10T20:05:38.954Z,17.60
2022-08-10T20:08:11.216Z,17.60
2022-08-10T20:10:49.110Z,17.50
2022-08-10T20:13:26.576Z,17.40
2022-08-10T20:16:03.599Z,17.40
2022-08-10T20:18:37.559Z,17.40
2022-08-10T20:21:13.270Z,17.30
2022-08-10T20:23:53.885Z,17.20
2022-08-10T20:26:27.933Z,17.20
2022-08-10T20:29:56.887Z,17.10
2022-08-10T20:32:13.896Z,17.10
2022-08-10T20:34:47.609Z,17.00
2022-08-10T20:37:41.709Z,16.90
2022-08-10T20:40:19.272Z,16.90
2022-08-10T20:42:58.606Z,16.80
2022-08-10T20:45:37.496Z,16.70
2022-08-10T20:48:26.574Z,16.60
2022-08-10T20:50:57.970Z,16.60
2022-08-10T20:53:27.850Z,16.50
2022-08-10T20:56:04.391Z,16.30
2022-08-10T20:58:46.312Z,16.20
2022-08-10T21:01:17.309Z,16.10
2022-08-10T21:04:21.166Z,16.00
2022-08-10T21:07:19.435Z,15.90
2022-08-10T21:10:07.080Z,15.80
2022-08-10T21:12:55.825Z,15.80
2022-08-10T21:15:41.843Z,15.70
2022-08-10T21:18:20.914Z,15.60
2022-08-10T21:20:59.439Z,15.50
2022-08-10T21:23:32.485Z,15.40
2022-08-10T21:26:09.845Z,15.40
2022-08-10T21:28:53.153Z,15.30
2022-08-10T21:31:36.897Z,15.10
2022-08-10T21:34:17.755Z,15.10
2022-08-10T21:36:52.439Z,15.00
2022-08-10T21:39:42.474Z,14.90
2022-08-10T21:42:40.844Z,14.90
2022-08-10T21:45:58.411Z,14.80
2022-08-10T21:48:57.113Z,14.70
2022-08-10T21:52:01.338Z,14.70
2022-08-10T21:55:00.834Z,14.60
2022-08-10T21:58:01.194Z,14.50
2022-08-10T22:00:49.517Z,14.40
2022-08-10T22:03:39.846Z,14.40
2022-08-10T22:06:28.706Z,14.30
2022-08-10T22:09:20.813Z,14.30
2022-08-10T22:12:31.097Z,14.20
2022-08-10T22:16:04.035Z,14.10
2022-08-10T22:18:33.042Z,14.10
2022-08-10T22:21:45.030Z,14.00
2022-08-10T22:24:41.329Z,13.90
2022-08-10T22:27:47.290Z,13.80
2022-08-10T22:30:35.866Z,13.70
2022-08-10T22:33:40.429Z,13.60
2022-08-10T22:36:44.056Z,13.60
2022-08-10T22:40:11.657Z,13.50
2022-08-10T22:42:59.209Z,13.40
2022-08-10T22:45:54.917Z,13.40
2022-08-10T22:48:40.903Z,13.40
2022-08-10T22:51:18.268Z,13.30
2022-08-10T22:54:10.270Z,13.30
2022-08-10T22:56:56.332Z,13.30
2022-08-10T22:59:30.900Z,13.20
2022-08-10T23:02:08.743Z,13.20
2022-08-10T23:04:45.547Z,13.20
2022-08-10T23:07:22.424Z,13.10
2022-08-10T23:09:59.019Z,13.10
2022-08-10T23:12:33.776Z,13.10
2022-08-10T23:15:24.704Z,13.00
2022-08-10T23:18:14.800Z,13.00
2022-08-10T23:20:44.869Z,12.90
2022-08-10T23:23:24.880Z,12.90
2022-08-10T23:25:57.524Z,12.90
2022-08-10T23:28:55.503Z,12.90
2022-08-10T23:32:00.847Z,12.90
2022-08-10T23:34:09.488Z,12.90
2022-08-10T23:36:41.007Z,12.90
2022-08-10T23:39:26.067Z,12.80
2022-08-10T23:42:04.646Z,12.80
2022-08-10T23:44:38.036Z,12.70
2022-08-10T23:47:09.294Z,12.70
2022-08-10T23:49:38.695Z,12.60
2022-08-10T23:52:16.199Z,12.50
2022-08-10T23:54:50.872Z,12.50
2022-08-10T23:57:21.255Z,12.40
2022-08-10T23:59:55.553Z,12.40
